Terminal Aerodrome Forecast
Issued by NWS

Home | Current Version | Previous Version | Text Only | Print | Product List | Glossary On
Versions: 1 2 3 4 5 6 7 8 9 10 11 12
271
FTUS45 KABQ 191731
TAFLVS
TAF
KLVS 191731Z 1918/2018 22028G38KT P6SM BKN060
     FM191900 22037G50KT P6SM VCSH BKN080
     FM200800 26022G32KT P6SM OVC070
     FM201200 24015KT P6SM SCT040
     FM201500 25022G30KT P6SM SCT040=

USA.gov is the U.S. government's official web portal to all federal, state and local government web resources and services.